Bda Vieques, Puerto Rico
Current Conditions -  °F | °C
As of 1:56 AM on Friday 19 Dec 2014 (Local Time) from TJSJ Reporting Station
Few Clouds Few Clouds  
Wind Chill: 76°   Ceiling: Unl
Heat Index: 76°   Visibility: 10mi
Dew Point: 68°   Wind: 3mph
Humidity: 76%   Direction: 110°ESE
Pressure: 29.96"   Gusts: NA
Location:  18.1193°N, 66.1642°W
Report Text: TJSJ 190556Z 11003KT 10SM FEW038 24/20 A2996 RMK AO2 SLP145 T02440200 10256 20244 58015
Loading
Personal Weather Stations






























Interactive Weather Map New forecast layout! Learn more

10-Day Weather Forecast

Advertisements
Track Severe Weather on mobile